Time;durP1;ratioP1;P1;durP2;ratioP2;P2;SDS_P1;SDS_P2;PMS_P1;PMS_P2;Temp;Humidity;BMP_temperature;BMP_pressure;BME280_temperature;BME280_humidity;BME280_pressure;Samples;Min_cycle;Max_cycle;Signal;HPM_P1;HPM_P2
2023/01/05 00:01:42;;;;;;;22.60;4.20;;;13.40;99.90;;;;;;5065217;28;20257;-34
2023/01/05 00:04:10;;;;;;;19.03;4.07;;;13.40;99.90;;;;;;5065845;28;20220;-31
2023/01/05 00:06:38;;;;;;;14.17;4.40;;;13.40;99.90;;;;;;5064256;28;20207;-32
2023/01/05 00:09:12;;;;;;;18.73;3.97;;;13.40;99.90;;;;;;5064180;28;20196;-31
2023/01/05 00:22:52;;;;;;;18.13;4.20;;;13.30;99.90;;;;;;5055993;28;20299;-32
2023/01/05 00:25:28;;;;;;;23.40;5.33;;;13.30;99.90;;;;;;5064758;28;20200;-34
2023/01/05 00:27:57;;;;;;;20.37;4.60;;;13.30;99.90;;;;;;5064891;28;20286;-33
2023/01/05 00:30:37;;;;;;;20.03;4.27;;;13.30;99.90;;;;;;5064913;28;20226;-32
2023/01/05 00:33:08;;;;;;;20.50;4.20;;;13.30;99.90;;;;;;5065013;28;20292;-33
2023/01/05 00:35:37;;;;;;;20.27;4.33;;;13.30;99.90;;;;;;5063717;28;20246;-33
2023/01/05 00:38:08;;;;;;;20.13;3.53;;;13.30;99.90;;;;;;5065060;28;20670;-33
2023/01/05 00:40:38;;;;;;;19.97;4.07;;;13.30;99.90;;;;;;5065815;28;20242;-33
2023/01/05 00:43:05;;;;;;;20.60;4.23;;;13.30;99.90;;;;;;5048154;28;20971;-32
2023/01/05 00:45:32;;;;;;;20.47;4.30;;;13.30;99.90;;;;;;5045964;28;20200;-33
2023/01/05 00:47:59;;;;;;;22.10;5.70;;;13.30;99.90;;;;;;5064937;28;20409;-32
2023/01/05 00:50:29;;;;;;;25.67;4.90;;;13.30;99.90;;;;;;5063124;28;20670;-33
2023/01/05 00:52:56;;;;;;;20.10;4.03;;;13.30;99.90;;;;;;5060911;28;20264;-33
2023/01/05 00:55:25;;;;;;;22.50;4.67;;;13.30;99.90;;;;;;5064439;28;20568;-34
2023/01/05 00:57:58;;;;;;;22.60;4.80;;;13.30;99.90;;;;;;5064015;28;20306;-33
2023/01/05 01:00:26;;;;;;;20.80;4.47;;;13.30;99.90;;;;;;5063302;28;20212;-32
2023/01/05 01:02:55;;;;;;;24.13;4.73;;;13.30;99.90;;;;;;5056340;28;20290;-34
2023/01/05 01:05:22;;;;;;;22.70;5.73;;;13.30;99.90;;;;;;5064548;28;20211;-33
2023/01/05 01:07:52;;;;;;;27.93;4.87;;;13.30;99.90;;;;;;5062611;28;20586;-33
2023/01/05 01:10:19;;;;;;;21.00;4.80;;;13.30;99.90;;;;;;5062809;28;20208;-33
2023/01/05 01:12:46;;;;;;;18.50;4.47;;;13.30;99.90;;;;;;5079767;28;20206;-33
2023/01/05 01:15:18;;;;;;;25.40;4.70;;;13.30;99.90;;;;;;5063312;28;20585;-32
2023/01/05 01:17:53;;;;;;;22.67;4.70;;;13.30;99.90;;;;;;5059114;28;20246;-33
2023/01/05 01:20:21;;;;;;;22.17;4.43;;;13.30;99.90;;;;;;5062880;28;20257;-33
2023/01/05 01:22:52;;;;;;;26.20;4.33;;;13.30;99.90;;;;;;5079078;28;20670;-33
2023/01/05 01:25:21;;;;;;;23.53;4.70;;;13.30;99.90;;;;;;5064188;28;20707;-32
2023/01/05 01:27:53;;;;;;;23.60;5.23;;;13.30;99.90;;;;;;5064456;28;20252;-33
2023/01/05 01:30:21;;;;;;;31.27;5.47;;;13.30;99.90;;;;;;5062829;28;20200;-32
2023/01/05 01:32:48;;;;;;;17.23;4.20;;;13.30;99.90;;;;;;5064180;28;20720;-33
2023/01/05 01:35:15;;;;;;;21.47;4.33;;;13.30;99.90;;;;;;5065231;28;20620;-33
2023/01/05 01:37:44;;;;;;;28.63;5.40;;;13.30;99.90;;;;;;5064563;28;20237;-33
2023/01/05 01:40:12;;;;;;;17.50;4.30;;;13.30;99.90;;;;;;5048191;28;20819;-33
2023/01/05 01:42:40;;;;;;;21.50;5.13;;;13.20;99.90;;;;;;5064486;28;20219;-33
2023/01/05 01:45:23;;;;;;;20.83;4.83;;;13.20;99.90;;;;;;5062991;28;20273;-33
2023/01/05 01:47:59;;;;;;;23.20;5.40;;;13.20;99.90;;;;;;5064379;28;20701;-33
2023/01/05 01:50:38;;;;;;;21.27;5.23;;;13.20;99.90;;;;;;5062027;28;20246;-33
2023/01/05 01:53:15;;;;;;;23.17;4.63;;;13.20;99.90;;;;;;5063205;28;20231;-33
2023/01/05 01:55:43;;;;;;;19.47;4.23;;;13.10;99.90;;;;;;5063892;28;20246;-32
2023/01/05 01:58:15;;;;;;;25.60;4.53;;;13.10;99.90;;;;;;5060417;28;20216;-33
2023/01/05 02:00:45;;;;;;;20.03;4.20;;;13.10;99.90;;;;;;5050350;28;20285;-35
2023/01/05 02:03:13;;;;;;;28.03;5.50;;;13.10;99.90;;;;;;5058485;28;20614;-34
2023/01/05 02:05:40;;;;;;;26.37;4.80;;;13.10;99.90;;;;;;5060571;28;20247;-33
2023/01/05 02:08:13;;;;;;;22.57;4.90;;;13.10;99.90;;;;;;5059785;28;20291;-33
2023/01/05 02:10:59;;;;;;;25.13;5.03;;;13.10;99.90;;;;;;5061427;28;20204;-33
2023/01/05 02:13:55;;;;;;;20.20;4.67;;;13.10;99.90;;;;;;5063146;28;20211;-33
2023/01/05 02:17:16;;;;;;;27.07;5.73;;;13.10;99.90;;;;;;5052958;28;20576;-33
2023/01/05 02:19:46;;;;;;;18.13;4.37;;;13.10;99.90;;;;;;5078318;28;20226;-32
2023/01/05 02:22:40;;;;;;;22.70;5.50;;;13.00;99.90;;;;;;5058651;28;20243;-33
2023/01/05 02:25:16;;;;;;;22.33;5.67;;;13.00;99.90;;;;;;5062685;28;20248;-33
2023/01/05 02:28:09;;;;;;;23.20;4.77;;;13.00;99.90;;;;;;5066373;28;20206;-33
2023/01/05 02:31:07;;;;;;;20.07;4.70;;;13.00;99.90;;;;;;5066617;28;20207;-32
2023/01/05 02:33:55;;;;;;;22.57;5.20;;;13.00;99.90;;;;;;5066074;28;20276;-33
2023/01/05 02:36:53;;;;;;;23.80;5.07;;;13.10;99.90;;;;;;5067356;28;20215;-33
2023/01/05 02:39:57;;;;;;;26.53;5.37;;;13.10;99.90;;;;;;5058816;28;20295;-33
2023/01/05 02:42:26;;;;;;;28.97;5.03;;;13.20;99.90;;;;;;5065683;28;20223;-33
2023/01/05 02:44:54;;;;;;;24.17;5.23;;;13.10;99.90;;;;;;5066174;28;20227;-33
2023/01/05 02:47:24;;;;;;;25.90;5.20;;;13.20;99.90;;;;;;5066462;28;20623;-34
2023/01/05 02:50:01;;;;;;;21.53;5.47;;;13.10;99.90;;;;;;5066431;28;20257;-33
2023/01/05 02:52:38;;;;;;;27.73;5.67;;;13.10;99.90;;;;;;5066647;28;20231;-33
2023/01/05 02:55:13;;;;;;;22.63;4.70;;;13.20;99.90;;;;;;5066558;28;20290;-33
2023/01/05 02:57:54;;;;;;;31.27;6.03;;;13.20;99.90;;;;;;5058577;28;20195;-32
2023/01/05 03:00:41;;;;;;;26.37;5.83;;;13.30;99.90;;;;;;5066783;28;20253;-33
2023/01/05 03:03:42;;;;;;;23.90;5.17;;;13.30;99.90;;;;;;5065581;28;20607;-33
2023/01/05 03:06:17;;;;;;;28.23;6.50;;;13.30;99.90;;;;;;5061493;28;20227;-33
2023/01/05 03:08:53;;;;;;;26.10;5.50;;;13.20;99.90;;;;;;5067261;28;20582;-33
2023/01/05 03:14:22;;;;;;;23.67;4.77;;;13.30;99.90;;;;;;5065571;28;20614;-32
2023/01/05 03:16:52;;;;;;;25.00;4.87;;;13.30;99.90;;;;;;5079526;28;20211;-33
2023/01/05 03:19:38;;;;;;;29.23;4.97;;;13.30;99.90;;;;;;5064769;28;20212;-33
2023/01/05 03:36:26;;;;;;;21.73;4.27;;;13.30;99.90;;;;;;5066878;28;20277;-33
2023/01/05 03:38:56;;;;;;;21.63;4.37;;;13.30;99.90;;;;;;5066192;28;20215;-32
2023/01/05 03:41:26;;;;;;;20.13;4.83;;;13.30;99.90;;;;;;5066027;28;20211;-31
2023/01/05 03:43:57;;;;;;;17.67;4.77;;;13.20;99.90;;;;;;5063846;28;20200;-34
2023/01/05 03:46:26;;;;;;;22.70;5.93;;;13.30;99.90;;;;;;5064286;28;20265;-34
2023/01/05 03:48:54;;;;;;;25.83;5.33;;;13.30;99.90;;;;;;5080953;28;20672;-33
2023/01/05 03:51:23;;;;;;;24.90;5.63;;;13.30;99.90;;;;;;5066512;28;20292;-34
2023/01/05 03:53:50;;;;;;;26.17;5.87;;;13.30;99.90;;;;;;5065796;28;20571;-34
2023/01/05 03:56:22;;;;;;;31.27;5.83;;;13.30;99.90;;;;;;5065243;28;20420;-34
2023/01/05 03:58:52;;;;;;;24.43;4.83;;;13.30;99.90;;;;;;5056594;28;20642;-34
2023/01/05 04:01:19;;;;;;;22.23;5.03;;;13.20;99.90;;;;;;5064961;28;20988;-33
2023/01/05 04:03:46;;;;;;;25.53;5.40;;;13.30;99.90;;;;;;5064844;28;20203;-33
2023/01/05 04:06:16;;;;;;;32.50;5.97;;;13.30;99.90;;;;;;5065182;28;20282;-32
2023/01/05 04:08:44;;;;;;;24.00;4.93;;;13.30;99.90;;;;;;5064310;28;20207;-31
2023/01/05 04:11:18;;;;;;;29.43;5.33;;;13.30;99.90;;;;;;5063102;28;20469;-32
2023/01/05 04:13:45;;;;;;;25.97;5.17;;;13.30;99.90;;;;;;5064595;28;20314;-31
2023/01/05 04:16:18;;;;;;;29.53;5.70;;;13.30;99.90;;;;;;5064548;28;20239;-32
2023/01/05 04:18:45;;;;;;;29.20;5.80;;;13.40;99.90;;;;;;5065525;28;20212;-31
2023/01/05 04:21:17;;;;;;;18.77;5.33;;;13.40;99.90;;;;;;5066971;28;20223;-31
2023/01/05 04:23:44;;;;;;;27.57;5.53;;;13.40;99.90;;;;;;5066072;28;20299;-31
2023/01/05 04:26:11;;;;;;;23.63;5.17;;;13.30;99.90;;;;;;5065213;28;20765;-31
2023/01/05 04:28:41;;;;;;;25.87;5.70;;;13.40;99.90;;;;;;5064014;28;20199;-31
2023/01/05 04:31:08;;;;;;;26.03;5.33;;;13.40;99.90;;;;;;5065288;28;20253;-32
2023/01/05 04:33:38;;;;;;;24.30;5.67;;;13.40;99.90;;;;;;5064577;28;20288;-31
2023/01/05 04:36:13;;;;;;;22.70;4.73;;;13.40;99.90;;;;;;5064832;28;20306;-32
2023/01/05 04:38:44;;;;;;;24.30;4.60;;;13.30;99.90;;;;;;5063269;28;20203;-32
2023/01/05 04:41:14;;;;;;;29.40;5.20;;;13.30;99.90;;;;;;5066202;28;20212;-31
2023/01/05 04:43:43;;;;;;;28.90;5.53;;;13.30;99.90;;;;;;5062871;28;20576;-32
2023/01/05 04:46:12;;;;;;;22.17;4.57;;;13.30;99.90;;;;;;5064644;28;20624;-31
2023/01/05 04:48:39;;;;;;;25.73;4.60;;;13.30;99.90;;;;;;5064080;28;20318;-32
2023/01/05 04:51:06;;;;;;;26.40;4.70;;;13.30;99.90;;;;;;5065599;28;20343;-32
2023/01/05 04:53:34;;;;;;;20.57;5.23;;;13.30;99.90;;;;;;5065125;28;20219;-31
2023/01/05 04:56:03;;;;;;;21.77;5.73;;;13.30;99.90;;;;;;5064626;28;20238;-32
2023/01/05 04:58:32;;;;;;;23.83;5.23;;;13.30;99.90;;;;;;5063287;28;20654;-31
2023/01/05 05:01:00;;;;;;;23.40;5.20;;;13.30;99.90;;;;;;5079073;28;20281;-32
2023/01/05 05:03:27;;;;;;;24.30;5.77;;;13.30;99.90;;;;;;5064662;28;20216;-32
2023/01/05 05:05:59;;;;;;;24.27;5.43;;;13.30;99.90;;;;;;5064165;28;20569;-32
2023/01/05 05:08:29;;;;;;;20.07;4.70;;;13.30;99.90;;;;;;5064489;28;20245;-32
2023/01/05 05:10:58;;;;;;;24.80;4.73;;;13.30;99.90;;;;;;5064833;28;20200;-32
2023/01/05 05:13:28;;;;;;;22.10;5.77;;;13.20;99.90;;;;;;5062000;28;20210;-31
2023/01/05 05:15:55;;;;;;;27.07;5.23;;;13.30;99.90;;;;;;5064910;28;20927;-31
2023/01/05 05:18:25;;;;;;;28.97;5.13;;;13.30;99.90;;;;;;5061324;28;20638;-32
2023/01/05 05:20:56;;;;;;;25.37;5.83;;;13.30;99.90;;;;;;5064550;28;20208;-32
2023/01/05 05:23:24;;;;;;;28.53;4.80;;;13.30;99.90;;;;;;5064623;28;20588;-32
2023/01/05 05:25:52;;;;;;;21.03;4.40;;;13.30;99.90;;;;;;5064511;28;20203;-32
2023/01/05 05:28:26;;;;;;;28.77;5.70;;;13.30;99.90;;;;;;5062792;28;20308;-32
2023/01/05 05:30:59;;;;;;;20.90;4.93;;;13.30;99.90;;;;;;5064587;28;20222;-32
2023/01/05 05:33:31;;;;;;;27.50;6.13;;;13.20;99.90;;;;;;5063392;28;20258;-31
2023/01/05 05:36:00;;;;;;;23.30;5.70;;;13.20;99.90;;;;;;5064273;28;20223;-31
2023/01/05 05:38:27;;;;;;;23.30;6.10;;;13.30;99.90;;;;;;5064017;28;20210;-32
2023/01/05 05:40:55;;;;;;;20.67;4.70;;;13.30;99.90;;;;;;5065150;28;20222;-32
2023/01/05 05:43:22;;;;;;;27.77;5.43;;;13.30;99.90;;;;;;5061339;28;20192;-32
2023/01/05 05:45:51;;;;;;;20.13;4.30;;;13.30;99.90;;;;;;5064399;28;20203;-32
2023/01/05 05:48:23;;;;;;;25.37;5.80;;;13.30;99.90;;;;;;5067129;28;20196;-32
2023/01/05 05:50:51;;;;;;;26.90;5.27;;;13.20;99.90;;;;;;5066708;28;20533;-31
2023/01/05 05:53:18;;;;;;;21.33;5.10;;;13.20;99.90;;;;;;5068388;28;20284;-32
2023/01/05 05:55:49;;;;;;;29.13;5.03;;;13.20;99.90;;;;;;5068013;28;20307;-32
2023/01/05 05:58:18;;;;;;;30.70;5.63;;;13.20;99.90;;;;;;5067267;28;20227;-32
2023/01/05 06:00:48;;;;;;;17.83;4.40;;;13.20;99.90;;;;;;5064592;28;20199;-32
2023/01/05 06:03:15;;;;;;;31.00;6.33;;;13.20;99.90;;;;;;5053497;28;20243;-32
2023/01/05 06:05:47;;;;;;;25.27;5.50;;;13.20;99.90;;;;;;5060383;28;20227;-31
2023/01/05 06:08:17;;;;;;;25.43;5.13;;;13.20;99.90;;;;;;5062509;28;20235;-32
2023/01/05 06:10:44;;;;;;;29.63;5.67;;;13.20;99.90;;;;;;5067629;28;20200;-31
2023/01/05 06:13:11;;;;;;;20.80;4.87;;;13.20;99.90;;;;;;5054812;28;20218;-32
2023/01/05 06:15:38;;;;;;;31.40;6.37;;;13.20;99.90;;;;;;5065273;28;20196;-32
2023/01/05 06:18:06;;;;;;;33.77;6.67;;;13.20;99.90;;;;;;5056410;28;20294;-32
2023/01/05 06:20:33;;;;;;;26.63;5.30;;;13.20;99.90;;;;;;5067216;28;20300;-32
2023/01/05 06:23:03;;;;;;;28.87;5.30;;;13.20;99.90;;;;;;5066562;28;20251;-32
2023/01/05 06:25:30;;;;;;;33.43;7.93;;;13.30;99.90;;;;;;5067302;28;20577;-32
2023/01/05 06:28:00;;;;;;;30.80;5.63;;;13.30;99.90;;;;;;5064754;28;20294;-31
2023/01/05 06:30:30;;;;;;;27.20;5.40;;;13.30;99.90;;;;;;5062762;28;20215;-32
2023/01/05 06:32:59;;;;;;;25.70;5.43;;;13.30;99.90;;;;;;5080894;28;20199;-32
2023/01/05 06:35:27;;;;;;;31.17;6.27;;;13.30;99.90;;;;;;5057366;28;20207;-31
2023/01/05 06:37:54;;;;;;;27.77;5.67;;;13.20;99.90;;;;;;5066753;28;20257;-32
2023/01/05 06:40:22;;;;;;;25.93;5.30;;;13.30;99.90;;;;;;5065447;28;20302;-32
2023/01/05 06:42:51;;;;;;;27.67;5.80;;;13.30;99.90;;;;;;5066892;28;20216;-32
2023/01/05 06:45:19;;;;;;;25.50;5.70;;;13.30;99.90;;;;;;5066499;28;20221;-31
2023/01/05 06:47:49;;;;;;;29.97;5.67;;;13.30;99.90;;;;;;5061467;28;20191;-32
2023/01/05 06:50:16;;;;;;;36.40;6.80;;;13.30;99.90;;;;;;5060045;28;20207;-32
2023/01/05 06:52:46;;;;;;;25.60;5.20;;;13.20;99.90;;;;;;5062019;28;20231;-31
2023/01/05 06:55:13;;;;;;;32.10;5.63;;;13.30;99.90;;;;;;5059713;28;20292;-31
2023/01/05 06:57:40;;;;;;;36.83;5.93;;;13.30;99.90;;;;;;5066234;28;20273;-31
2023/01/05 07:00:10;;;;;;;27.57;5.77;;;13.30;99.90;;;;;;5065147;28;20208;-32
2023/01/05 07:02:37;;;;;;;24.47;5.50;;;13.30;99.90;;;;;;5065432;28;20310;-32
2023/01/05 07:05:10;;;;;;;29.13;5.43;;;13.30;99.90;;;;;;5058818;28;20621;-32
2023/01/05 07:07:40;;;;;;;30.10;6.43;;;13.20;99.90;;;;;;5064876;28;20908;-31
2023/01/05 07:10:09;;;;;;;30.87;5.80;;;13.20;99.90;;;;;;5066919;28;20541;-32
2023/01/05 07:12:37;;;;;;;29.93;5.93;;;13.30;99.90;;;;;;5066592;28;20867;-32
2023/01/05 07:15:07;;;;;;;20.33;4.90;;;13.30;99.90;;;;;;5065747;28;20268;-32
2023/01/05 07:17:35;;;;;;;31.60;5.63;;;13.30;99.90;;;;;;5064776;28;20753;-31
2023/01/05 07:20:06;;;;;;;24.17;4.87;;;13.20;99.90;;;;;;5065017;28;20203;-31
2023/01/05 07:22:38;;;;;;;25.20;5.53;;;13.20;99.90;;;;;;5060677;28;20219;-32
2023/01/05 07:25:05;;;;;;;25.80;5.43;;;13.20;99.90;;;;;;5063476;28;20254;-32
2023/01/05 07:27:33;;;;;;;27.50;5.40;;;13.20;99.90;;;;;;5065339;28;20295;-32
2023/01/05 07:30:00;;;;;;;27.27;5.57;;;13.20;99.90;;;;;;5064431;28;20207;-32
2023/01/05 07:32:29;;;;;;;28.53;5.07;;;13.10;99.90;;;;;;5060739;28;20213;-32
2023/01/05 07:35:00;;;;;;;28.10;5.87;;;13.20;99.90;;;;;;5066686;28;20335;-32
2023/01/05 07:37:30;;;;;;;25.60;5.43;;;13.20;99.90;;;;;;5064323;28;20575;-32
2023/01/05 07:39:57;;;;;;;23.50;5.27;;;13.20;99.90;;;;;;5063664;28;20319;-32
2023/01/05 07:42:24;;;;;;;27.40;5.53;;;13.20;99.90;;;;;;5061572;28;20215;-32
2023/01/05 07:44:52;;;;;;;32.63;6.67;;;13.20;99.90;;;;;;5064903;28;20204;-32
2023/01/05 07:47:19;;;;;;;26.27;5.30;;;13.10;99.90;;;;;;5064164;28;20202;-31
2023/01/05 07:49:46;;;;;;;27.20;4.97;;;13.10;99.90;;;;;;5060194;28;20219;-32
2023/01/05 07:52:16;;;;;;;25.03;5.17;;;13.10;99.90;;;;;;5063731;28;20243;-32
2023/01/05 07:54:44;;;;;;;28.00;5.80;;;13.10;99.90;;;;;;5065734;28;20639;-32
2023/01/05 07:57:13;;;;;;;18.87;4.53;;;13.10;99.90;;;;;;5065653;28;20207;-32
2023/01/05 07:59:40;;;;;;;28.60;5.40;;;13.10;99.90;;;;;;5063566;28;20211;-32
2023/01/05 08:02:10;;;;;;;28.60;6.30;;;13.10;99.90;;;;;;5063636;28;20281;-32
2023/01/05 08:04:40;;;;;;;22.90;4.87;;;13.10;99.90;;;;;;5059047;28;20220;-32
2023/01/05 08:07:11;;;;;;;25.97;4.87;;;13.10;99.90;;;;;;5063561;28;20195;-32
2023/01/05 08:12:28;;;;;;;28.60;5.30;;;13.10;99.90;;;;;;5060931;28;20654;-33
2023/01/05 08:15:00;;;;;;;24.87;5.13;;;13.10;99.90;;;;;;5058000;28;20207;-32
2023/01/05 08:17:27;;;;;;;21.83;5.07;;;13.20;99.90;;;;;;5063295;28;20195;-33
2023/01/05 08:19:54;;;;;;;21.07;5.33;;;13.20;99.90;;;;;;5062423;28;20544;-33
2023/01/05 08:22:22;;;;;;;28.27;5.30;;;13.10;99.90;;;;;;5063425;28;20666;-33
2023/01/05 08:24:51;;;;;;;27.10;5.10;;;13.20;99.90;;;;;;5066470;28;20696;-33
2023/01/05 08:27:21;;;;;;;28.57;6.20;;;13.20;99.90;;;;;;5064448;28;20199;-32
2023/01/05 08:29:48;;;;;;;26.60;5.50;;;13.10;99.90;;;;;;5063121;28;20200;-33
2023/01/05 08:32:18;;;;;;;23.30;5.67;;;13.20;99.90;;;;;;5063425;28;20215;-32
2023/01/05 08:34:46;;;;;;;29.47;5.37;;;13.20;99.90;;;;;;5049811;28;20563;-33
2023/01/05 08:37:21;;;;;;;30.20;5.23;;;13.20;99.90;;;;;;5063338;28;20251;-32
2023/01/05 08:39:50;;;;;;;24.20;4.63;;;13.20;99.90;;;;;;5065814;28;20306;-33
2023/01/05 08:42:17;;;;;;;21.57;5.20;;;13.20;99.90;;;;;;5064796;28;20223;-32
2023/01/05 08:44:47;;;;;;;25.20;5.27;;;13.20;99.90;;;;;;5063508;28;20257;-33
2023/01/05 08:47:15;;;;;;;28.03;5.77;;;13.20;99.90;;;;;;5053389;28;20203;-32
2023/01/05 08:49:44;;;;;;;25.10;5.90;;;13.20;99.90;;;;;;5058342;28;20307;-32
2023/01/05 08:52:14;;;;;;;20.43;4.70;;;13.20;99.90;;;;;;5061642;28;20696;-33
2023/01/05 08:54:42;;;;;;;29.60;5.83;;;13.20;99.90;;;;;;5065511;28;20239;-33
2023/01/05 08:57:15;;;;;;;29.83;5.50;;;13.20;99.90;;;;;;5060039;28;20710;-33
2023/01/05 08:59:46;;;;;;;23.80;5.23;;;13.20;99.90;;;;;;5056312;28;20278;-32
2023/01/05 09:02:13;;;;;;;23.93;5.03;;;13.20;99.90;;;;;;5058974;28;20582;-32
2023/01/05 09:04:47;;;;;;;25.60;5.57;;;13.30;99.90;;;;;;5054551;28;20230;-32
2023/01/05 09:07:17;;;;;;;22.60;4.83;;;13.30;99.90;;;;;;5057603;28;20207;-33
2023/01/05 09:09:44;;;;;;;27.23;5.40;;;13.30;99.90;;;;;;5057761;28;20506;-32
2023/01/05 09:12:16;;;;;;;22.87;5.10;;;13.30;99.90;;;;;;5058791;28;20207;-32
2023/01/05 09:14:44;;;;;;;21.33;4.53;;;13.30;99.90;;;;;;5059982;28;20318;-32
2023/01/05 09:17:11;;;;;;;19.93;4.63;;;13.30;99.90;;;;;;5061184;28;20705;-32
2023/01/05 09:19:38;;;;;;;27.20;5.57;;;13.30;99.90;;;;;;5058236;28;20204;-31
2023/01/05 09:22:13;;;;;;;21.63;4.67;;;13.30;99.90;;;;;;5058413;28;20212;-32
2023/01/05 09:24:42;;;;;;;21.03;4.60;;;13.30;99.90;;;;;;5057507;28;20528;-32
2023/01/05 09:27:09;;;;;;;30.93;6.20;;;13.40;99.90;;;;;;5061845;28;20200;-32
2023/01/05 09:29:38;;;;;;;23.80;5.33;;;13.40;99.90;;;;;;5056343;28;20202;-32
2023/01/05 09:32:06;;;;;;;22.83;5.23;;;13.40;99.90;;;;;;5057442;28;20215;-32
2023/01/05 09:34:33;;;;;;;25.07;4.83;;;13.40;99.90;;;;;;5061673;28;20203;-32
2023/01/05 09:37:03;;;;;;;25.07;5.30;;;13.40;99.90;;;;;;5060574;28;20308;-32
2023/01/05 09:39:30;;;;;;;30.70;5.93;;;13.40;99.90;;;;;;5046013;28;20222;-32
2023/01/05 09:42:04;;;;;;;26.17;5.57;;;13.40;99.90;;;;;;5057828;28;20199;-32
2023/01/05 09:44:38;;;;;;;22.43;5.53;;;13.40;99.90;;;;;;5063224;28;20252;-32
2023/01/05 09:47:25;;;;;;;25.37;5.00;;;13.40;99.90;;;;;;5055856;28;20694;-32
2023/01/05 09:49:56;;;;;;;27.40;5.50;;;13.50;99.90;;;;;;5058709;28;20211;-32
2023/01/05 09:52:24;;;;;;;29.13;5.80;;;13.50;99.90;;;;;;5061531;28;20242;-32
2023/01/05 09:54:52;;;;;;;21.27;5.83;;;13.50;99.90;;;;;;5064022;28;20211;-32
2023/01/05 09:57:26;;;;;;;29.40;6.13;;;13.50;99.90;;;;;;5063272;28;20200;-31
2023/01/05 10:00:00;;;;;;;30.13;5.73;;;13.60;99.90;;;;;;5057629;28;20659;-32
2023/01/05 10:02:49;;;;;;;26.57;5.77;;;13.60;99.90;;;;;;5059810;28;20218;-32
2023/01/05 10:05:23;;;;;;;25.20;5.33;;;13.60;99.90;;;;;;5057078;28;20200;-31
2023/01/05 10:08:02;;;;;;;25.87;5.80;;;13.60;99.90;;;;;;5062498;28;20669;-32
2023/01/05 10:10:45;;;;;;;24.93;5.33;;;13.60;99.90;;;;;;5060505;28;20617;-32
2023/01/05 10:13:30;;;;;;;26.50;5.53;;;13.70;99.90;;;;;;5056580;28;20617;-32
2023/01/05 10:15:57;;;;;;;33.90;6.23;;;13.70;99.90;;;;;;5052026;28;20340;-32
2023/01/05 10:18:29;;;;;;;29.20;6.63;;;13.70;99.90;;;;;;5059541;28;20204;-32
2023/01/05 10:21:02;;;;;;;28.77;5.37;;;13.70;99.90;;;;;;5058759;28;20291;-32
2023/01/05 10:23:38;;;;;;;30.27;6.40;;;13.70;99.90;;;;;;5057529;28;20246;-32
2023/01/05 10:26:18;;;;;;;24.70;5.20;;;13.70;99.90;;;;;;5059596;28;20735;-31
2023/01/05 10:29:09;;;;;;;27.27;6.23;;;13.70;99.90;;;;;;5060381;28;20215;-31
2023/01/05 10:31:47;;;;;;;28.63;5.87;;;13.70;99.90;;;;;;5060682;28;20195;-32
2023/01/05 10:34:35;;;;;;;22.23;5.33;;;13.80;99.90;;;;;;5059470;28;20215;-32
2023/01/05 10:37:21;;;;;;;26.80;5.77;;;13.80;99.90;;;;;;5059754;28;20798;-32
2023/01/05 10:40:36;;;;;;;27.93;5.37;;;13.70;99.90;;;;;;5064879;28;20261;-32
2023/01/05 10:43:50;;;;;;;21.20;4.33;;;13.80;99.90;;;;;;5053231;28;20227;-32
2023/01/05 10:46:20;;;;;;;23.70;5.20;;;13.70;99.90;;;;;;5052866;28;20223;-32
2023/01/05 10:49:07;;;;;;;28.40;5.53;;;13.70;99.90;;;;;;5057191;28;20262;-32
2023/01/05 10:51:35;;;;;;;22.17;4.70;;;13.70;99.90;;;;;;5051973;28;20608;-32
2023/01/05 10:54:05;;;;;;;27.53;5.03;;;13.70;99.90;;;;;;5062178;28;20217;-32
2023/01/05 10:56:32;;;;;;;29.87;5.83;;;13.70;99.90;;;;;;5062517;28;20209;-32
2023/01/05 10:59:14;;;;;;;29.53;6.00;;;13.70;99.90;;;;;;5066309;28;20207;-33
2023/01/05 11:01:45;;;;;;;24.43;5.13;;;13.70;99.90;;;;;;5064355;28;20620;-33
2023/01/05 11:04:22;;;;;;;25.40;4.90;;;13.70;99.90;;;;;;5066631;28;20233;-33
2023/01/05 11:07:05;;;;;;;24.40;5.60;;;13.70;99.90;;;;;;5068563;28;20200;-32
2023/01/05 11:09:38;;;;;;;27.10;5.73;;;13.70;99.90;;;;;;5065503;28;20282;-32
2023/01/05 11:12:17;;;;;;;22.73;4.77;;;13.80;99.90;;;;;;5065162;28;20917;-32
2023/01/05 11:14:51;;;;;;;29.03;5.33;;;13.80;99.90;;;;;;5064207;28;20203;-32
2023/01/05 11:17:27;;;;;;;27.67;5.57;;;13.80;99.90;;;;;;5064895;28;20715;-32
2023/01/05 11:19:59;;;;;;;20.83;4.60;;;13.90;99.90;;;;;;5055308;28;20220;-32
2023/01/05 11:22:28;;;;;;;26.63;5.00;;;13.90;99.90;;;;;;5057562;28;20291;-32
2023/01/05 11:25:26;;;;;;;28.67;5.13;;;13.90;99.90;;;;;;5063103;28;20207;-32
2023/01/05 11:28:15;;;;;;;27.27;5.03;;;13.90;99.90;;;;;;5056712;28;20208;-32
2023/01/05 11:31:01;;;;;;;20.80;4.83;;;13.90;99.90;;;;;;5065015;28;20722;-33
2023/01/05 11:33:32;;;;;;;25.40;5.03;;;13.90;99.90;;;;;;5065554;28;21412;-32
2023/01/05 11:36:05;;;;;;;22.37;5.40;;;13.90;99.90;;;;;;5063030;28;20265;-32
2023/01/05 11:38:33;;;;;;;34.57;5.97;;;13.90;99.90;;;;;;5062515;28;20211;-32
2023/01/05 11:41:09;;;;;;;27.77;6.10;;;13.90;99.90;;;;;;5051428;28;20673;-32
2023/01/05 11:43:39;;;;;;;21.87;4.97;;;13.90;99.90;;;;;;5062265;28;20258;-33
2023/01/05 11:46:13;;;;;;;26.23;5.70;;;13.90;99.90;;;;;;5064574;28;20215;-32
2023/01/05 11:48:55;;;;;;;22.97;5.13;;;13.90;99.90;;;;;;5056277;28;20691;-31
2023/01/05 11:51:39;;;;;;;24.67;5.40;;;13.90;99.90;;;;;;5060830;28;20790;-31
2023/01/05 11:54:31;;;;;;;20.90;4.67;;;14.00;99.90;;;;;;5059907;28;20777;-31
2023/01/05 11:57:17;;;;;;;29.20;5.57;;;14.00;99.90;;;;;;5058093;28;20312;-32
2023/01/05 11:59:49;;;;;;;23.87;4.53;;;14.00;99.90;;;;;;5065113;28;20812;-31
2023/01/05 12:02:29;;;;;;;28.37;5.47;;;14.10;99.90;;;;;;5057072;28;20213;-32
2023/01/05 12:05:09;;;;;;;21.47;5.07;;;14.10;99.90;;;;;;5062132;28;20309;-31
2023/01/05 12:07:47;;;;;;;26.63;5.67;;;14.10;99.90;;;;;;5064070;28;20352;-31
2023/01/05 12:10:37;;;;;;;23.17;5.73;;;14.20;99.90;;;;;;5050968;28;20196;-31
2023/01/05 12:13:19;;;;;;;27.83;6.00;;;14.20;99.90;;;;;;5060856;28;20572;-31
2023/01/05 12:16:04;;;;;;;25.80;5.77;;;14.30;99.90;;;;;;5060391;28;20212;-31
2023/01/05 12:18:46;;;;;;;25.60;5.87;;;14.30;99.90;;;;;;5056273;28;20206;-31
2023/01/05 12:21:28;;;;;;;28.27;5.43;;;14.30;99.90;;;;;;5065213;28;20285;-31
2023/01/05 12:24:22;;;;;;;26.33;5.23;;;14.30;99.90;;;;;;5064108;28;20216;-34
2023/01/05 12:27:05;;;;;;;27.37;6.00;;;14.40;99.90;;;;;;5064261;28;20323;-31
2023/01/05 12:29:50;;;;;;;24.23;5.60;;;14.40;99.90;;;;;;5057817;28;20773;-32
2023/01/05 12:32:52;;;;;;;26.47;5.60;;;14.40;99.90;;;;;;5060843;28;20562;-32
2023/01/05 12:36:10;;;;;;;25.00;5.43;;;14.40;99.90;;;;;;5061656;28;20206;-32
2023/01/05 12:39:03;;;;;;;25.83;5.60;;;14.40;99.90;;;;;;5064994;28;20204;-32
2023/01/05 12:41:53;;;;;;;24.77;5.80;;;14.40;99.90;;;;;;5063700;28;20688;-32
2023/01/05 12:44:37;;;;;;;26.77;5.40;;;14.40;99.90;;;;;;5062652;28;20234;-32
2023/01/05 12:47:29;;;;;;;23.97;6.00;;;14.40;99.90;;;;;;5065445;28;20207;-32
2023/01/05 12:50:11;;;;;;;30.43;5.70;;;14.50;99.90;;;;;;5062103;28;20206;-31
2023/01/05 12:52:44;;;;;;;20.23;5.03;;;14.50;99.90;;;;;;5062596;28;21026;-32
2023/01/05 12:55:19;;;;;;;25.40;5.67;;;14.50;99.90;;;;;;5064541;28;20207;-32
2023/01/05 12:57:53;;;;;;;23.97;5.80;;;14.50;99.90;;;;;;5048785;28;20367;-31
2023/01/05 13:00:23;;;;;;;30.57;5.50;;;14.60;99.90;;;;;;5062307;28;20719;-32
2023/01/05 13:02:58;;;;;;;27.03;6.30;;;14.60;99.90;;;;;;5040184;28;20196;-32
2023/01/05 13:05:40;;;;;;;28.60;5.50;;;14.60;99.90;;;;;;5060389;28;20219;-32
2023/01/05 13:08:17;;;;;;;21.83;5.20;;;14.60;99.90;;;;;;5064593;28;20287;-32
2023/01/05 13:10:57;;;;;;;35.17;6.80;;;14.60;99.90;;;;;;5063018;28;20284;-31
2023/01/05 13:13:40;;;;;;;24.83;5.80;;;14.60;99.90;;;;;;5063276;28;20760;-32
2023/01/05 13:16:07;;;;;;;24.90;6.10;;;14.60;99.90;;;;;;5060884;28;20676;-31
2023/01/05 13:18:42;;;;;;;29.67;6.00;;;14.60;99.90;;;;;;5063809;28;20588;-32
2023/01/05 13:21:13;;;;;;;23.30;5.30;;;14.60;99.90;;;;;;5056278;28;20208;-32
2023/01/05 13:23:46;;;;;;;28.47;5.90;;;14.60;99.90;;;;;;5048783;28;20277;-32
2023/01/05 13:26:18;;;;;;;24.87;5.53;;;14.60;99.90;;;;;;5055246;28;20684;-32
2023/01/05 13:28:47;;;;;;;19.30;5.20;;;14.60;99.90;;;;;;5061844;28;20192;-31
2023/01/05 13:31:23;;;;;;;23.20;5.43;;;14.60;99.90;;;;;;5065820;28;20216;-32
2023/01/05 13:34:18;;;;;;;17.17;4.63;;;14.60;99.90;;;;;;5064136;28;20203;-31
2023/01/05 13:37:07;;;;;;;21.50;5.43;;;14.70;99.90;;;;;;5054708;28;20647;-31
2023/01/05 13:39:43;;;;;;;23.23;5.33;;;14.70;99.90;;;;;;5058512;28;20269;-32